Time;durP1;ratioP1;P1;durP2;ratioP2;P2;SDS_P1;SDS_P2;PMS_P1;PMS_P2;Temp;Humidity;BMP_temperature;BMP_pressure;BME280_temperature;BME280_humidity;BME280_pressure;Samples;Min_cycle;Max_cycle;Signal;HPM_P1;HPM_P2
2024/02/01 00:01:11;;;;;;;4.10;2.43;;;6.60;99.90;;;6.96;100.00;99236.41;5039025;28;20831;-76
2024/02/01 00:03:40;;;;;;;3.20;2.37;;;6.50;99.90;;;6.87;100.00;99234.63;5040426;28;20877;-76
2024/02/01 00:06:08;;;;;;;4.07;2.87;;;6.40;99.90;;;6.91;100.00;99249.00;5038510;28;20931;-76
2024/02/01 00:08:37;;;;;;;7.40;3.07;;;6.40;99.90;;;6.95;100.00;99253.78;5040405;28;20460;-77
2024/02/01 00:11:06;;;;;;;4.93;3.20;;;6.40;99.90;;;6.97;100.00;99251.06;5038617;28;21193;-76
2024/02/01 00:13:35;;;;;;;4.97;2.63;;;6.50;99.90;;;6.93;100.00;99252.28;5039025;28;20453;-76
2024/02/01 00:16:05;;;;;;;5.60;3.07;;;6.50;99.90;;;6.94;100.00;99257.34;5037484;28;20920;-77
2024/02/01 00:18:34;;;;;;;4.17;2.40;;;6.60;99.90;;;6.96;100.00;99260.66;5039020;28;20465;-76
2024/02/01 00:21:02;;;;;;;3.77;2.60;;;6.50;99.90;;;6.96;100.00;99252.84;5039024;28;20944;-77
2024/02/01 00:23:31;;;;;;;3.27;2.60;;;6.50;99.90;;;6.93;100.00;99252.28;5038672;28;21000;-76
2024/02/01 00:25:59;;;;;;;4.77;2.93;;;6.40;99.90;;;6.92;100.00;99242.84;5037325;28;20563;-76
2024/02/01 00:28:28;;;;;;;4.47;3.10;;;6.40;99.90;;;6.93;100.00;99232.31;5038521;28;20481;-76
2024/02/01 00:30:57;;;;;;;3.50;2.50;;;6.50;99.90;;;6.97;100.00;99232.88;5035847;28;21367;-76
2024/02/01 00:33:26;;;;;;;6.20;3.50;;;6.40;99.90;;;6.93;100.00;99232.31;5039679;28;20474;-76
2024/02/01 00:35:55;;;;;;;4.93;2.77;;;6.50;99.90;;;6.96;100.00;99239.84;5040411;28;20507;-77
2024/02/01 00:38:23;;;;;;;6.23;3.37;;;6.40;99.90;;;6.98;100.00;99237.94;5040016;28;20823;-77
2024/02/01 00:40:52;;;;;;;4.23;3.00;;;6.50;99.90;;;6.91;100.00;99239.41;5039670;28;20464;-76
2024/02/01 00:43:21;;;;;;;2.93;2.40;;;6.40;99.90;;;6.94;100.00;99233.94;5040242;28;20492;-76
2024/02/01 00:45:49;;;;;;;6.37;3.00;;;6.40;99.90;;;6.92;100.00;99240.25;5040854;28;20724;-76
2024/02/01 00:48:18;;;;;;;8.73;2.83;;;6.40;99.90;;;6.92;100.00;99235.88;5042745;28;20987;-77
2024/02/01 00:50:48;;;;;;;5.90;4.80;;;6.40;99.90;;;6.93;100.00;99237.53;5043278;28;20469;-76
2024/02/01 00:53:16;;;;;;;5.50;3.03;;;6.50;99.90;;;6.91;100.00;99236.81;5042848;28;20994;-76
2024/02/01 00:55:45;;;;;;;5.17;3.20;;;6.50;99.90;;;6.95;100.00;99239.97;5041235;28;20835;-77
2024/02/01 00:58:13;;;;;;;4.10;2.87;;;6.50;99.90;;;6.98;100.00;99244.91;5042234;28;20518;-77
2024/02/01 01:00:41;;;;;;;10.40;3.30;;;6.50;99.90;;;6.94;100.00;99243.56;5042956;28;20535;-76
2024/02/01 01:03:10;;;;;;;4.07;3.30;;;6.50;99.90;;;6.96;100.00;99242.44;5037277;28;20477;-77
2024/02/01 01:05:38;;;;;;;4.80;3.50;;;6.60;99.90;;;6.93;100.00;99249.69;5041261;28;20461;-76
2024/02/01 01:08:09;;;;;;;9.13;3.93;;;6.50;99.90;;;6.89;100.00;99248.31;5043108;28;20468;-77
2024/02/01 01:10:37;;;;;;;7.93;3.50;;;6.40;99.90;;;6.92;100.00;99245.44;5035913;28;20465;-76
2024/02/01 01:13:06;;;;;;;7.10;3.70;;;6.40;99.90;;;6.91;100.00;99247.22;5040544;28;20508;-76
2024/02/01 01:15:34;;;;;;;7.93;4.03;;;6.30;99.90;;;6.90;100.00;99248.19;5039426;28;20469;-76
2024/02/01 01:18:03;;;;;;;5.10;3.60;;;6.30;99.90;;;6.91;100.00;99249.81;5040765;28;20457;-76
2024/02/01 01:20:31;;;;;;;5.03;3.33;;;6.40;99.90;;;6.96;100.00;99246.81;5041072;28;20576;-76
2024/02/01 01:23:00;;;;;;;5.13;4.17;;;6.50;99.90;;;6.91;100.00;99242.00;5042256;28;20477;-76
2024/02/01 01:25:30;;;;;;;6.20;4.20;;;6.50;99.90;;;6.85;100.00;99252.97;5037727;28;20492;-77
2024/02/01 01:27:58;;;;;;;7.60;4.97;;;6.40;99.90;;;6.80;100.00;99256.94;5039713;28;20457;-76
2024/02/01 01:30:27;;;;;;;6.37;4.37;;;6.30;99.90;;;6.81;100.00;99253.34;5037975;28;20461;-77
2024/02/01 01:32:55;;;;;;;10.60;4.80;;;6.30;99.90;;;6.83;100.00;99251.44;5041183;28;20800;-76
2024/02/01 01:35:24;;;;;;;8.43;5.10;;;6.40;99.90;;;6.83;100.00;99241.06;5042170;28;20490;-77
2024/02/01 01:37:52;;;;;;;7.93;5.33;;;6.40;99.90;;;6.76;100.00;99229.56;5040965;28;20461;-77
2024/02/01 01:40:21;;;;;;;10.30;5.70;;;6.40;99.90;;;6.76;100.00;99214.78;5040718;28;20453;-77
2024/02/01 01:42:51;;;;;;;8.43;4.90;;;6.40;99.90;;;6.76;100.00;99208.75;5042171;28;20453;-76
2024/02/01 01:45:20;;;;;;;6.30;4.50;;;6.30;99.90;;;6.74;100.00;99210.66;5041571;28;20485;-76
2024/02/01 01:47:49;;;;;;;6.80;5.00;;;6.40;99.90;;;6.72;100.00;99218.59;5041240;28;20456;-76
2024/02/01 01:50:18;;;;;;;11.20;5.53;;;6.20;99.90;;;6.73;100.00;99219.44;5041939;28;20863;-77
2024/02/01 01:52:49;;;;;;;6.17;4.70;;;6.30;99.90;;;6.68;100.00;99219.00;5041560;28;21025;-77
2024/02/01 01:55:18;;;;;;;7.37;5.40;;;6.20;99.90;;;6.68;100.00;99216.38;5041161;28;20453;-77
2024/02/01 01:57:48;;;;;;;7.77;5.13;;;6.20;99.90;;;6.68;100.00;99200.78;5041918;28;20461;-76
2024/02/01 02:00:18;;;;;;;7.33;4.50;;;6.30;99.90;;;6.64;100.00;99194.22;5040145;28;20473;-76
2024/02/01 02:02:47;;;;;;;8.20;5.93;;;6.30;99.90;;;6.67;100.00;99201.75;5040312;28;20890;-76
2024/02/01 02:05:16;;;;;;;9.73;5.37;;;6.20;99.90;;;6.64;100.00;99200.25;5039731;28;20464;-76
2024/02/01 02:07:44;;;;;;;12.57;5.97;;;6.30;99.90;;;6.62;100.00;99203.94;5039514;28;20461;-76
2024/02/01 02:10:14;;;;;;;8.43;5.80;;;6.30;99.90;;;6.58;100.00;99196.41;5037898;28;20458;-76
2024/02/01 02:12:44;;;;;;;8.70;5.90;;;6.20;99.90;;;6.53;100.00;99200.34;5037615;28;20590;-76
2024/02/01 02:15:15;;;;;;;7.33;5.80;;;6.20;99.90;;;6.51;100.00;99194.47;5037000;28;20476;-76
2024/02/01 02:17:45;;;;;;;10.10;5.83;;;6.20;99.90;;;6.48;100.00;99179.97;5040482;28;20637;-77
2024/02/01 02:20:17;;;;;;;8.80;5.07;;;6.10;99.90;;;6.47;100.00;99178.31;5041145;28;20496;-77
2024/02/01 02:22:51;;;;;;;9.47;5.70;;;6.00;99.90;;;6.48;100.00;99184.34;5040300;28;20508;-75
2024/02/01 02:25:20;;;;;;;8.43;5.17;;;6.10;99.90;;;6.48;100.00;99173.97;5040746;28;20804;-76
2024/02/01 02:27:49;;;;;;;7.10;5.53;;;6.00;99.90;;;6.49;100.00;99180.81;5040338;28;20457;-77
2024/02/01 02:30:18;;;;;;;6.80;5.30;;;6.10;99.90;;;6.53;100.00;99175.19;5040845;28;21030;-76
2024/02/01 02:32:47;;;;;;;7.47;5.73;;;6.10;99.90;;;6.54;100.00;99169.03;5041254;28;20499;-77
2024/02/01 02:35:17;;;;;;;7.20;4.80;;;6.10;99.90;;;6.53;100.00;99175.19;5040881;28;20563;-76
2024/02/01 02:37:49;;;;;;;9.20;5.90;;;6.20;99.90;;;6.52;100.00;99177.94;5040886;28;20821;-76
2024/02/01 02:40:19;;;;;;;7.97;4.60;;;6.10;99.90;;;6.54;100.00;99176.84;5040159;28;20912;-76
2024/02/01 02:42:49;;;;;;;6.80;5.23;;;6.10;99.90;;;6.53;100.00;99177.78;5040849;28;20575;-76
2024/02/01 02:45:18;;;;;;;10.20;4.60;;;6.20;99.90;;;6.50;100.00;99166.84;5039588;28;20570;-76
2024/02/01 02:47:47;;;;;;;10.53;4.63;;;6.00;99.90;;;6.46;100.00;99174.06;5040833;28;20615;-76
2024/02/01 02:50:16;;;;;;;9.10;4.43;;;6.00;99.90;;;6.49;100.00;99176.41;5040566;28;20548;-77
2024/02/01 02:52:45;;;;;;;7.43;5.10;;;6.10;99.90;;;6.50;100.00;99175.47;5040619;28;20546;-76
2024/02/01 02:55:15;;;;;;;7.03;5.23;;;6.10;99.90;;;6.50;100.00;99180.66;5040503;28;20960;-77
2024/02/01 02:57:44;;;;;;;9.17;5.60;;;6.20;99.90;;;6.52;100.00;99180.53;5039481;28;21477;-76
2024/02/01 03:00:18;;;;;;;8.97;4.93;;;6.10;99.90;;;6.50;100.00;99179.81;5039247;28;20468;-76
2024/02/01 03:02:49;;;;;;;7.03;5.47;;;6.00;99.90;;;6.54;100.00;99176.00;5039493;28;20518;-76
2024/02/01 03:05:19;;;;;;;8.00;5.47;;;6.10;99.90;;;6.54;100.00;99171.66;5039570;28;20465;-76
2024/02/01 03:07:47;;;;;;;9.67;5.27;;;6.20;99.90;;;6.52;100.00;99160.56;5041508;28;20493;-76
2024/02/01 03:10:18;;;;;;;9.57;5.10;;;6.10;99.90;;;6.53;100.00;99163.97;5038245;28;20468;-76
2024/02/01 03:12:47;;;;;;;6.30;4.50;;;6.10;99.90;;;6.53;100.00;99154.41;5038405;28;20489;-76
2024/02/01 03:15:15;;;;;;;8.80;5.23;;;6.20;99.90;;;6.55;100.00;99144.72;5037828;28;20787;-76
2024/02/01 03:17:44;;;;;;;6.60;4.90;;;6.20;99.90;;;6.59;100.00;99160.84;5038255;28;20464;-76
2024/02/01 03:20:22;;;;;;;13.33;5.70;;;6.20;99.90;;;6.56;100.00;99153.31;5037417;28;21144;-75
2024/02/01 03:22:54;;;;;;;9.37;4.87;;;6.20;99.90;;;6.57;100.00;99147.16;5039447;28;20468;-76
2024/02/01 03:25:29;;;;;;;10.07;5.17;;;6.20;99.90;;;6.59;100.00;99153.84;5037988;28;21013;-76
2024/02/01 03:28:00;;;;;;;6.67;4.90;;;6.20;99.90;;;6.57;100.00;99155.78;5039033;28;20467;-76
2024/02/01 03:30:31;;;;;;;6.27;5.37;;;6.20;99.90;;;6.53;100.00;99144.00;5037338;28;20511;-76
2024/02/01 03:33:02;;;;;;;6.57;4.50;;;6.20;99.90;;;6.60;100.00;99139.09;5038850;28;20911;-76
2024/02/01 03:35:31;;;;;;;6.30;4.80;;;6.20;99.90;;;6.52;100.00;99141.56;5038017;28;20461;-77
2024/02/01 03:38:01;;;;;;;7.43;4.83;;;6.20;99.90;;;6.54;100.00;99148.25;5039929;28;20915;-76
2024/02/01 03:40:38;;;;;;;5.00;4.50;;;6.10;99.90;;;6.55;100.00;99134.31;5037725;28;20468;-76
2024/02/01 03:43:07;;;;;;;6.17;4.47;;;6.10;99.90;;;6.59;100.00;99133.06;5038040;28;20496;-76
2024/02/01 03:45:35;;;;;;;5.87;4.50;;;6.10;99.90;;;6.58;100.00;99118.47;5038491;28;21002;-76
2024/02/01 03:48:04;;;;;;;9.83;4.27;;;6.10;99.90;;;6.57;100.00;99110.78;5039086;28;20476;-77
2024/02/01 03:50:38;;;;;;;5.80;4.50;;;6.10;99.90;;;6.54;100.00;99109.28;5038907;28;20467;-76
2024/02/01 03:53:10;;;;;;;7.03;4.20;;;6.10;99.90;;;6.54;100.00;99117.09;5036941;28;20516;-76
2024/02/01 03:55:41;;;;;;;5.83;3.70;;;6.00;99.90;;;6.59;100.00;99111.50;5039379;28;20455;-76
2024/02/01 03:58:10;;;;;;;3.60;3.30;;;6.00;99.90;;;6.57;100.00;99111.59;5038030;28;21036;-76
2024/02/01 04:00:38;;;;;;;6.30;3.80;;;6.20;99.90;;;6.61;100.00;99124.31;5038653;28;20453;-76
2024/02/01 04:03:13;;;;;;;8.00;4.00;;;6.20;99.90;;;6.63;100.00;99125.81;5039591;28;20561;-77
2024/02/01 04:05:44;;;;;;;10.90;3.60;;;6.20;99.90;;;6.63;100.00;99125.03;5039219;28;20537;-76
2024/02/01 04:08:17;;;;;;;6.60;3.73;;;6.20;99.90;;;6.64;100.00;99131.84;5042379;28;20903;-76
2024/02/01 04:10:47;;;;;;;5.33;4.00;;;6.10;99.90;;;6.69;100.00;99129.69;5043492;28;20461;-76
2024/02/01 04:13:16;;;;;;;5.37;3.97;;;6.20;99.90;;;6.65;100.00;99130.91;5043797;28;20857;-76
2024/02/01 04:15:45;;;;;;;4.57;3.40;;;6.20;99.90;;;6.65;100.00;99125.72;5042393;28;20495;-76
2024/02/01 04:18:13;;;;;;;5.50;3.50;;;6.20;99.90;;;6.68;100.00;99125.44;5043034;28;20866;-76
2024/02/01 04:20:42;;;;;;;5.07;3.70;;;6.20;99.90;;;6.69;100.00;99129.69;5043606;28;20546;-76
2024/02/01 04:23:12;;;;;;;4.40;3.63;;;6.30;99.90;;;6.70;100.00;99131.31;5044255;28;20499;-76
2024/02/01 04:25:40;;;;;;;5.27;3.20;;;6.20;99.90;;;6.70;100.00;99132.13;5042558;28;21065;-76
2024/02/01 04:28:12;;;;;;;7.63;3.67;;;6.20;99.90;;;6.76;100.00;99128.19;5042877;28;20548;-76
2024/02/01 04:30:40;;;;;;;4.80;3.30;;;6.30;99.90;;;6.76;100.00;99126.41;5041995;28;20463;-76
2024/02/01 04:33:09;;;;;;;4.90;3.40;;;6.20;99.90;;;6.75;100.00;99127.34;5041745;28;21047;-76
2024/02/01 04:35:37;;;;;;;5.10;3.30;;;6.30;99.90;;;6.76;100.00;99125.59;5038664;28;20460;-76
2024/02/01 04:38:06;;;;;;;5.50;3.00;;;6.30;99.90;;;6.76;100.00;99120.38;5041015;28;20461;-76
2024/02/01 04:40:34;;;;;;;3.70;2.70;;;6.30;99.90;;;6.77;100.00;99127.22;5040118;28;20465;-76
2024/02/01 04:43:04;;;;;;;3.97;2.30;;;6.20;99.90;;;6.75;100.00;99129.13;5041546;28;20460;-76
2024/02/01 04:45:34;;;;;;;4.10;2.80;;;6.20;99.90;;;6.78;100.00;99128.84;5039108;28;21014;-76
2024/02/01 04:48:10;;;;;;;6.80;3.00;;;6.40;99.90;;;6.78;100.00;99128.84;5040879;28;20469;-76
2024/02/01 04:50:39;;;;;;;7.07;3.30;;;6.30;99.90;;;6.77;100.00;99122.81;5040597;28;20457;-76
2024/02/01 04:53:08;;;;;;;6.20;3.20;;;6.20;99.90;;;6.79;100.00;99123.53;5040402;28;20832;-76
2024/02/01 04:55:37;;;;;;;3.80;2.67;;;6.20;99.90;;;6.81;100.00;99133.78;5040866;28;21011;-76
2024/02/01 04:58:07;;;;;;;5.20;3.07;;;6.20;99.90;;;6.84;100.00;99138.69;5042443;28;20548;-76
2024/02/01 05:00:37;;;;;;;3.90;2.43;;;6.30;99.90;;;6.82;100.00;99146.66;5041905;28;20468;-76
2024/02/01 05:03:06;;;;;;;4.63;2.90;;;6.30;99.90;;;6.85;100.00;99150.75;5042712;28;20468;-76
2024/02/01 05:05:34;;;;;;;3.93;2.83;;;6.30;99.90;;;6.85;100.00;99146.38;5042193;28;20460;-75
2024/02/01 05:08:05;;;;;;;3.60;2.47;;;6.40;99.90;;;6.87;100.00;99141.06;5042176;28;20554;-76
2024/02/01 05:10:33;;;;;;;2.97;2.30;;;6.30;99.90;;;6.89;100.00;99139.13;5041543;28;20966;-76
2024/02/01 05:13:02;;;;;;;4.00;2.53;;;6.30;99.90;;;6.88;100.00;99140.91;5041608;28;20452;-76
2024/02/01 05:15:30;;;;;;;3.40;2.73;;;6.30;99.90;;;6.89;100.00;99136.53;5039512;28;20890;-76
2024/02/01 05:18:01;;;;;;;3.83;2.80;;;6.30;99.90;;;6.91;100.00;99132.00;5035696;28;20758;-82
2024/02/01 05:20:29;;;;;;;5.47;2.50;;;6.30;99.90;;;6.88;100.00;99142.66;5038092;28;20460;-76
2024/02/01 05:22:58;;;;;;;3.70;2.60;;;6.30;99.90;;;6.89;100.00;99137.34;5039228;28;20659;-76
2024/02/01 05:25:27;;;;;;;2.63;2.40;;;6.30;99.90;;;6.88;100.00;99140.91;5034847;28;21037;-76
2024/02/01 05:27:56;;;;;;;2.70;2.13;;;6.40;99.90;;;6.84;100.00;99129.13;5035813;28;20468;-84
2024/02/01 05:30:24;;;;;;;8.80;4.90;;;6.30;99.90;;;6.85;100.00;99135.16;5037352;28;20460;-77
2024/02/01 05:32:54;;;;;;;2.93;2.53;;;6.30;99.90;;;6.87;100.00;99128.06;5039932;28;21057;-77
2024/02/01 05:35:30;;;;;;;3.00;2.70;;;6.30;99.90;;;6.87;100.00;99128.06;5030197;28;20688;-77
2024/02/01 05:38:01;;;;;;;2.40;2.20;;;6.30;99.90;;;6.87;100.00;99131.44;5038060;28;21042;-77
2024/02/01 05:40:31;;;;;;;2.40;2.20;;;6.30;99.90;;;6.87;100.00;99128.84;5039611;28;20453;-77
2024/02/01 05:42:59;;;;;;;2.73;2.20;;;6.30;99.90;;;6.90;100.00;99130.38;5034697;28;20497;-77
2024/02/01 05:45:28;;;;;;;3.07;2.30;;;6.30;99.90;;;6.95;100.00;99134.19;5035352;28;20512;-76
2024/02/01 05:47:58;;;;;;;10.00;6.20;;;6.30;99.90;;;6.92;100.00;99126.66;5038157;28;20457;-84
2024/02/01 05:50:29;;;;;;;42.97;27.13;;;6.30;99.90;;;6.94;100.00;99122.13;5034450;28;20593;-78
2024/02/01 05:52:58;;;;;;;3.57;2.50;;;6.50;99.90;;;6.94;100.00;99124.75;5039252;28;20457;-77
2024/02/01 05:55:26;;;;;;;2.90;2.20;;;6.50;99.90;;;6.97;100.00;99113.28;5041106;28;20504;-77
2024/02/01 05:57:55;;;;;;;4.60;2.63;;;6.50;99.90;;;6.97;100.00;99124.50;5040113;28;20457;-78
2024/02/01 06:00:24;;;;;;;2.43;2.10;;;6.50;99.90;;;6.97;100.00;99123.66;5041355;28;20467;-77
2024/02/01 06:02:53;;;;;;;3.10;1.90;;;6.40;99.90;;;6.98;100.00;99125.28;5041359;28;20461;-77
2024/02/01 06:05:22;;;;;;;2.10;1.93;;;6.50;99.90;;;6.98;100.00;99120.09;5041655;28;20472;-77
2024/02/01 06:07:52;;;;;;;3.20;1.80;;;6.40;99.90;;;6.98;100.00;99125.28;5038970;28;20841;-77
2024/02/01 06:10:20;;;;;;;2.23;2.03;;;6.40;99.90;;;7.02;100.00;99116.25;5039837;28;20462;-77
2024/02/01 06:12:49;;;;;;;2.90;1.70;;;6.50;99.90;;;7.02;100.00;99113.66;5040096;28;21005;-77
2024/02/01 06:15:18;;;;;;;2.00;1.60;;;6.50;99.90;;;7.04;100.00;99109.16;5040134;28;20600;-77
2024/02/01 06:17:47;;;;;;;2.23;2.00;;;6.60;99.90;;;7.06;100.00;99118.47;5040877;28;20465;-77
2024/02/01 06:20:16;;;;;;;2.03;1.83;;;6.50;99.90;;;7.07;100.00;99111.47;5039978;28;20922;-76
2024/02/01 06:22:45;;;;;;;2.10;1.90;;;6.50;99.90;;;7.05;100.00;99118.59;5040627;28;20789;-77
2024/02/01 06:25:15;;;;;;;2.33;1.90;;;6.40;99.90;;;7.05;100.00;99122.00;5041080;28;20495;-77
2024/02/01 06:27:44;;;;;;;2.93;1.93;;;6.50;99.90;;;7.04;100.00;99127.38;5039978;28;20454;-77
2024/02/01 06:30:13;;;;;;;3.10;1.73;;;6.40;99.90;;;7.07;100.00;99132.28;5038904;28;20551;-77
2024/02/01 06:32:42;;;;;;;1.90;1.77;;;6.50;99.90;;;7.08;100.00;99141.72;5041057;28;20495;-77
2024/02/01 06:35:16;;;;;;;2.70;1.70;;;6.40;99.90;;;7.10;100.00;99139.81;5040371;28;20516;-77
2024/02/01 06:37:52;;;;;;;3.87;2.00;;;6.50;99.90;;;7.13;100.00;99136.94;5036876;28;20457;-79
2024/02/01 06:40:37;;;;;;;112.20;59.83;;;6.50;99.90;;;7.11;100.00;99138.84;5036598;28;20467;-81
2024/02/01 06:43:17;;;;;;;15.30;8.00;;;6.50;99.90;;;7.13;100.00;99144.72;5034969;28;20852;-77
2024/02/01 06:45:48;;;;;;;1.50;1.40;;;6.60;99.90;;;7.15;100.00;99142.78;5034813;28;20485;-77
2024/02/01 06:48:22;;;;;;;1.63;1.40;;;6.60;99.90;;;7.14;100.00;99143.78;5034825;28;20992;-77
2024/02/01 06:50:57;;;;;;;5.57;1.80;;;6.50;99.90;;;7.18;100.00;99147.75;5037618;28;20460;-79
2024/02/01 06:53:33;;;;;;;2.33;1.70;;;6.60;99.90;;;7.20;100.00;99152.78;5036431;28;20463;-80
2024/02/01 06:56:07;;;;;;;3.97;1.43;;;6.60;99.90;;;7.21;100.00;99141.44;5038180;28;20496;-80
2024/02/01 06:58:49;;;;;;;2.23;1.80;;;6.60;99.90;;;7.21;100.00;99146.66;5037898;28;20847;-80
2024/02/01 07:01:51;;;;;;;1.83;1.67;;;6.60;99.90;;;7.24;100.00;99148.97;5037007;28;20461;-82
2024/02/01 07:04:31;;;;;;;6.13;2.30;;;6.60;99.90;;;7.26;100.00;99153.06;5017602;28;20485;-79
2024/02/01 07:07:17;;;;;;;1.80;1.63;;;6.80;99.90;;;7.28;100.00;99155.53;5033055;28;20543;-79
2024/02/01 07:09:57;;;;;;;1.90;1.63;;;6.70;99.90;;;7.31;100.00;99163.88;5037510;28;20959;-79
2024/02/01 07:12:42;;;;;;;4.83;1.50;;;6.70;99.90;;;7.33;100.00;99163.72;5034568;28;20843;-78
2024/02/01 07:15:30;;;;;;;1.50;1.27;;;6.60;99.90;;;7.34;100.00;99157.56;5038899;28;20484;-80
2024/02/01 07:18:05;;;;;;;3.13;1.80;;;6.80;99.90;;;7.37;100.00;99162.50;5039301;28;21184;-80
2024/02/01 07:20:46;;;;;;;2.10;1.57;;;6.80;99.90;;;7.38;100.00;99156.34;5039241;28;20460;-79
2024/02/01 07:23:34;;;;;;;1.63;1.40;;;6.80;99.90;;;7.41;100.00;99163.88;5040400;28;20452;-79
2024/02/01 07:26:16;;;;;;;2.43;1.70;;;6.90;99.90;;;7.42;100.00;99170.72;5037290;28;20479;-79
2024/02/01 07:59:38;;;;;;;1.60;1.50;;;7.00;99.90;;;7.60;100.00;99228.91;5042174;28;20452;-79
2024/02/01 08:02:23;;;;;;;3.07;1.40;;;7.00;99.90;;;7.60;100.00;99227.09;5043060;28;21274;-78
2024/02/01 08:07:48;;;;;;;1.60;1.50;;;7.00;99.90;;;7.58;100.00;99230.81;5041416;28;20459;-79
2024/02/01 08:10:18;;;;;;;3.43;1.70;;;7.00;99.90;;;7.59;100.00;99242.88;5041891;28;20530;-79
2024/02/01 08:12:48;;;;;;;2.33;2.00;;;7.00;99.90;;;7.55;100.00;99244.94;5041374;28;20484;-79
2024/02/01 08:15:19;;;;;;;2.40;1.60;;;6.90;99.90;;;7.56;100.00;99244.00;5041392;28;20499;-79
2024/02/01 08:17:52;;;;;;;2.27;1.67;;;6.90;99.90;;;7.57;100.00;99257.78;5041530;28;20465;-79
2024/02/01 08:20:21;;;;;;;3.00;1.73;;;6.90;99.90;;;7.59;100.00;99253.28;5043209;28;20653;-79
2024/02/01 08:22:51;;;;;;;3.90;1.63;;;6.80;99.90;;;7.55;100.00;99255.34;5041450;28;20457;-79
2024/02/01 08:25:19;;;;;;;2.80;1.70;;;6.80;99.90;;;7.56;100.00;99253.56;5042665;28;20477;-79
2024/02/01 08:27:53;;;;;;;2.00;1.80;;;6.90;99.90;;;7.61;100.00;99261.78;5040432;28;20453;-79
2024/02/01 08:30:27;;;;;;;1.97;1.77;;;6.80;99.90;;;7.56;100.00;99272.63;5041979;28;21181;-79
2024/02/01 08:33:03;;;;;;;2.33;1.83;;;6.80;99.90;;;7.57;100.00;99276.84;5042193;28;20738;-79
2024/02/01 08:35:33;;;;;;;3.27;2.63;;;6.80;99.90;;;7.60;100.00;99268.75;5036192;28;20492;-79
2024/02/01 08:38:03;;;;;;;3.20;1.80;;;6.80;99.90;;;7.60;100.00;99267.97;5041881;28;20465;-79
2024/02/01 08:40:32;;;;;;;2.10;1.90;;;6.80;99.90;;;7.59;100.00;99271.50;5038594;28;20551;-79
2024/02/01 08:43:01;;;;;;;3.73;2.23;;;6.80;99.90;;;7.63;100.00;99269.47;5043523;28;20464;-79
2024/02/01 08:45:31;;;;;;;2.70;2.20;;;6.90;99.90;;;7.63;100.00;99272.06;5043879;28;20480;-79
2024/02/01 08:48:02;;;;;;;3.00;1.87;;;6.90;99.90;;;7.66;100.00;99277.00;5042626;28;20465;-79
2024/02/01 08:50:34;;;;;;;2.57;2.00;;;6.90;99.90;;;7.67;100.00;99281.25;5041790;28;21020;-79
2024/02/01 08:53:08;;;;;;;3.50;1.80;;;7.00;99.90;;;7.63;100.00;99287.69;5041768;28;20545;-79
2024/02/01 08:55:37;;;;;;;2.70;2.07;;;6.90;99.90;;;7.58;100.00;99285.47;5043606;28;20575;-79
2024/02/01 08:58:09;;;;;;;1.90;1.80;;;7.00;99.90;;;7.59;100.00;99277.53;5042217;28;20467;-79
2024/02/01 09:00:42;;;;;;;4.43;2.20;;;6.90;99.90;;;7.63;100.00;99282.47;5040544;28;20808;-79
2024/02/01 09:03:16;;;;;;;2.17;1.97;;;7.00;99.90;;;7.66;100.00;99283.03;5041541;28;20548;-79
2024/02/01 09:05:48;;;;;;;2.77;2.57;;;7.00;99.90;;;7.70;100.00;99279.19;5041817;28;20496;-79
2024/02/01 09:08:24;;;;;;;3.00;2.57;;;7.10;99.90;;;7.74;100.00;99283.13;5044717;28;21030;-79
2024/02/01 09:10:58;;;;;;;3.80;2.20;;;7.10;99.90;;;7.78;100.00;99283.69;5043525;28;20986;-79
2024/02/01 09:13:30;;;;;;;3.57;2.27;;;7.10;99.90;;;7.82;100.00;99272.03;5042170;28;20515;-79
2024/02/01 09:15:58;;;;;;;3.00;2.00;;;7.20;99.90;;;7.87;100.00;99275.03;5041684;28;21326;-79
2024/02/01 09:18:29;;;;;;;2.10;1.90;;;7.20;99.90;;;7.92;100.00;99280.66;5041199;28;20466;-79
2024/02/01 09:21:01;;;;;;;2.13;1.93;;;7.30;99.90;;;7.97;100.00;99270.63;5043225;28;20457;-79
2024/02/01 09:23:31;;;;;;;3.20;2.33;;;7.30;99.90;;;8.03;100.00;99276.09;5041775;28;20457;-79
2024/02/01 09:26:00;;;;;;;2.43;2.23;;;7.40;99.90;;;8.09;100.00;99279.91;5041699;28;20478;-79
2024/02/01 09:28:29;;;;;;;2.43;1.80;;;7.50;99.90;;;8.18;100.00;99283.47;5040901;28;20464;-80
2024/02/01 09:30:59;;;;;;;4.70;2.30;;;7.50;99.90;;;8.25;100.00;99280.19;5034655;28;20832;-79
2024/02/01 09:33:34;;;;;;;1.77;1.53;;;7.70;99.90;;;8.30;100.00;99272.75;5033948;28;20573;-79
2024/02/01 09:36:04;;;;;;;2.10;1.90;;;7.70;99.90;;;8.36;100.00;99274.00;5037496;28;20497;-80
2024/02/01 09:38:32;;;;;;;2.10;1.60;;;7.70;99.90;;;8.39;100.00;99271.94;5037143;28;20509;-78
2024/02/01 09:41:01;;;;;;;2.67;1.70;;;7.80;99.90;;;8.42;100.00;99291.66;5038829;28;20516;-77
2024/02/01 09:43:39;;;;;;;1.60;1.50;;;7.80;99.90;;;8.47;100.00;99294.66;5038246;28;20480;-77
2024/02/01 09:46:09;;;;;;;1.50;1.40;;;7.90;99.90;;;8.50;100.00;99292.59;5035997;28;20811;-77
2024/02/01 09:48:41;;;;;;;4.00;1.80;;;7.90;99.90;;;8.56;100.00;99297.25;5019069;28;20457;-77
2024/02/01 09:51:17;;;;;;;2.10;1.40;;;8.10;99.90;;;8.62;100.00;99288.00;5035996;28;20548;-77
2024/02/01 09:53:47;;;;;;;2.03;1.80;;;8.10;99.90;;;8.66;100.00;99299.81;5038504;28;20870;-77
2024/02/01 09:56:17;;;;;;;3.40;1.90;;;8.20;99.90;;;8.66;100.00;99314.63;5038585;28;20975;-84
2024/02/01 09:58:47;;;;;;;7.63;4.77;;;8.10;99.90;;;8.75;100.00;99308.53;5001136;28;20469;-77
2024/02/01 10:01:15;;;;;;;7.13;4.30;;;8.20;99.90;;;8.78;100.00;99310.88;5035906;28;20518;-77
2024/02/01 10:03:46;;;;;;;1.57;1.33;;;8.20;99.90;;;8.79;100.00;99313.31;5040358;28;20567;-76
2024/02/01 10:06:15;;;;;;;1.90;1.23;;;8.20;99.90;;;8.83;100.00;99319.06;5038769;28;20984;-76
2024/02/01 10:08:45;;;;;;;2.50;1.50;;;8.20;99.90;;;8.87;100.00;99323.88;5038837;28;20540;-77
2024/02/01 10:11:19;;;;;;;2.03;1.70;;;8.40;99.90;;;8.90;100.00;99331.41;5039212;28;20503;-77
2024/02/01 10:13:49;;;;;;;1.83;1.73;;;8.40;99.90;;;8.87;100.00;99329.09;5035423;28;20468;-76
2024/02/01 10:16:21;;;;;;;2.90;1.30;;;8.40;99.90;;;8.89;100.00;99329.75;5039657;28;20476;-82
2024/02/01 10:18:54;;;;;;;10.53;6.57;;;8.40;99.90;;;8.90;100.00;99320.97;5042435;28;20472;-77
2024/02/01 10:21:25;;;;;;;1.40;1.30;;;8.40;99.90;;;8.93;100.00;99340.72;5038745;28;21059;-77
2024/02/01 10:24:08;;;;;;;1.67;1.43;;;8.30;99.90;;;8.94;100.00;99334.53;5018737;28;20565;-76
2024/02/01 10:26:37;;;;;;;1.93;1.20;;;8.50;99.90;;;8.95;100.00;99333.59;5038686;28;20894;-76
2024/02/01 10:29:08;;;;;;;2.07;1.37;;;8.50;99.90;;;8.99;100.00;99332.31;5039873;28;20461;-76
2024/02/01 10:31:44;;;;;;;1.60;1.50;;;8.50;99.90;;;9.03;100.00;99328.44;5040222;28;20453;-77
2024/02/01 10:34:17;;;;;;;1.93;1.30;;;8.60;99.90;;;9.01;100.00;99328.59;5038463;28;20967;-77
2024/02/01 10:36:51;;;;;;;1.23;1.13;;;8.40;99.90;;;9.06;100.00;99328.16;5041016;28;21236;-77
2024/02/01 10:39:29;;;;;;;1.20;1.10;;;8.50;99.90;;;9.10;100.00;99322.50;5040417;28;20452;-76
2024/02/01 10:42:08;;;;;;;1.80;1.17;;;8.60;99.90;;;9.08;100.00;99310.56;5038997;28;20492;-76
2024/02/01 10:44:44;;;;;;;1.73;1.50;;;8.60;99.90;;;9.14;100.00;99320.41;5039350;28;21086;-76
2024/02/01 10:47:15;;;;;;;1.50;1.37;;;8.60;99.90;;;9.16;100.00;99317.69;5037272;28;20998;-77
2024/02/01 10:49:52;;;;;;;2.50;1.60;;;8.70;99.90;;;9.20;100.00;99309.38;5038584;28;20706;-77
2024/02/01 10:52:21;;;;;;;1.40;1.30;;;8.60;99.90;;;9.26;100.00;99319.25;5037789;28;20465;-76
2024/02/01 10:54:50;;;;;;;1.30;1.20;;;8.60;99.90;;;9.29;100.00;99318.97;5035682;28;20548;-77
2024/02/01 10:57:20;;;;;;;1.30;1.20;;;8.80;99.90;;;9.33;100.00;99320.31;5036548;28;20570;-76
2024/02/01 10:59:51;;;;;;;2.27;1.27;;;8.70;99.90;;;9.31;100.00;99319.63;5037220;28;20469;-77
2024/02/01 11:02:20;;;;;;;1.93;1.53;;;8.80;99.90;;;9.27;100.00;99330.50;5037121;28;21319;-77
2024/02/01 11:04:50;;;;;;;3.87;1.70;;;8.90;99.90;;;9.27;100.00;99340.94;5038134;28;20997;-76
2024/02/01 11:07:24;;;;;;;2.00;1.30;;;8.80;99.90;;;9.22;100.00;99344.00;5039796;28;20548;-76
2024/02/01 11:09:54;;;;;;;1.70;1.60;;;8.80;99.90;;;9.22;100.00;99349.22;5038491;28;20464;-76
2024/02/01 11:12:24;;;;;;;2.77;1.40;;;8.80;99.90;;;9.24;100.00;99342.06;5039848;28;20520;-76
2024/02/01 11:14:58;;;;;;;1.97;1.53;;;8.70;99.90;;;9.23;100.00;99344.84;5039741;28;20476;-76